createdAt,value
2023-03-05T00:02:06.858Z,2.50
2023-03-05T00:04:34.045Z,2.60
2023-03-05T00:07:00.906Z,2.60
2023-03-05T00:09:27.716Z,2.60
2023-03-05T00:11:54.371Z,3.40
2023-03-05T00:14:21.042Z,2.60
2023-03-05T00:16:47.876Z,2.60
2023-03-05T00:19:14.587Z,2.50
2023-03-05T00:21:42.671Z,2.50
2023-03-05T00:24:15.486Z,2.60
2023-03-05T00:26:42.878Z,2.60
2023-03-05T00:29:12.742Z,2.60
2023-03-05T00:31:39.551Z,2.60
2023-03-05T00:34:13.525Z,2.60
2023-03-05T00:36:45.348Z,2.50
2023-03-05T00:39:12.271Z,2.60
2023-03-05T00:41:39.268Z,2.50
2023-03-05T00:44:05.926Z,2.50
2023-03-05T00:46:32.624Z,2.40
2023-03-05T00:48:59.309Z,2.40
2023-03-05T00:51:26.646Z,2.40
2023-03-05T00:53:54.081Z,2.40
2023-03-05T00:56:21.261Z,2.40
2023-03-05T00:58:48.085Z,2.30
2023-03-05T01:01:15.208Z,2.40
2023-03-05T01:03:42.032Z,2.40
2023-03-05T01:06:12.607Z,2.40
2023-03-05T01:08:39.729Z,2.60
2023-03-05T01:11:07.693Z,2.30
2023-03-05T01:13:34.922Z,2.30
2023-03-05T01:16:02.266Z,2.30
2023-03-05T01:18:29.373Z,2.30
2023-03-05T01:20:56.025Z,2.30
2023-03-05T01:23:22.722Z,2.20
2023-03-05T01:25:57.672Z,2.20
2023-03-05T01:28:24.849Z,2.20
2023-03-05T01:30:51.578Z,2.10
2023-03-05T01:33:18.364Z,2.30
2023-03-05T01:35:49.202Z,2.20
2023-03-05T01:38:16.211Z,2.30
2023-03-05T01:40:43.849Z,2.30
2023-03-05T01:43:10.441Z,2.20
2023-03-05T01:45:38.045Z,2.20
2023-03-05T01:48:04.785Z,2.10
2023-03-05T01:50:32.899Z,2.20
2023-03-05T01:53:03.014Z,2.10
2023-03-05T01:55:32.875Z,2.10
2023-03-05T01:58:06.433Z,2.10
2023-03-05T02:00:41.083Z,2.00
2023-03-05T02:03:10.536Z,2.00
2023-03-05T02:05:38.800Z,2.00
2023-03-05T02:08:08.198Z,2.10
2023-03-05T02:10:41.351Z,2.30
2023-03-05T02:13:20.051Z,2.30
2023-03-05T02:15:47.640Z,2.20
2023-03-05T02:18:14.340Z,2.30
2023-03-05T02:20:48.850Z,2.10
2023-03-05T02:23:17.452Z,2.20
2023-03-05T02:25:44.112Z,2.20
2023-03-05T02:28:26.108Z,2.20
2023-03-05T02:30:52.773Z,2.10
2023-03-05T02:33:20.437Z,2.10
2023-03-05T02:35:47.451Z,2.10
2023-03-05T02:38:16.359Z,2.20
2023-03-05T02:40:43.360Z,2.20
2023-03-05T02:43:10.597Z,2.10
2023-03-05T02:45:38.253Z,2.00
2023-03-05T02:48:05.187Z,2.20
2023-03-05T02:50:33.040Z,2.10
2023-03-05T02:52:59.717Z,2.10
2023-03-05T02:55:26.395Z,2.20
2023-03-05T02:57:53.048Z,2.10
2023-03-05T03:00:19.932Z,2.20
2023-03-05T03:02:46.662Z,2.10
2023-03-05T03:05:13.357Z,2.00
2023-03-05T03:07:40.084Z,2.10
2023-03-05T03:10:07.314Z,2.00
2023-03-05T03:12:38.666Z,2.00
2023-03-05T03:15:07.185Z,1.90
2023-03-05T03:17:35.886Z,1.80
2023-03-05T03:20:06.038Z,1.70
2023-03-05T03:22:32.772Z,1.70
2023-03-05T03:25:00.590Z,1.60
2023-03-05T03:27:27.268Z,1.80
2023-03-05T03:29:54.113Z,1.70
2023-03-05T03:32:20.866Z,1.80
2023-03-05T03:34:48.121Z,1.70
2023-03-05T03:37:15.110Z,1.60
2023-03-05T03:39:41.758Z,1.80
2023-03-05T03:42:08.422Z,1.60
2023-03-05T03:44:35.205Z,1.60
2023-03-05T03:47:01.892Z,1.60
2023-03-05T03:49:28.793Z,1.60
2023-03-05T03:51:55.662Z,1.50
2023-03-05T03:54:22.727Z,1.70
2023-03-05T03:56:49.450Z,1.60
2023-03-05T03:59:16.318Z,1.50
2023-03-05T04:01:43.178Z,1.50
2023-03-05T04:04:11.888Z,1.60
2023-03-05T04:06:38.775Z,1.40
2023-03-05T04:09:08.067Z,1.30
2023-03-05T04:11:35.979Z,1.30
2023-03-05T04:14:03.336Z,1.40
2023-03-05T04:16:30.146Z,1.30
2023-03-05T04:18:57.505Z,1.40
2023-03-05T04:21:24.237Z,1.30
2023-03-05T04:23:50.952Z,1.40
2023-03-05T04:26:17.706Z,1.30
2023-03-05T04:28:44.374Z,1.30
2023-03-05T04:31:11.085Z,1.20
2023-03-05T04:33:37.850Z,1.30
2023-03-05T04:36:04.854Z,2.10
2023-03-05T04:38:31.537Z,1.30
2023-03-05T04:40:58.226Z,1.10
2023-03-05T04:43:24.895Z,1.10
2023-03-05T04:45:51.847Z,0.70
2023-03-05T04:48:18.919Z,0.30
2023-03-05T04:50:45.614Z,1.00
2023-03-05T04:53:12.328Z,0.70
2023-03-05T04:55:39.091Z,1.10
2023-03-05T04:58:05.838Z,1.90
2023-03-05T05:00:32.585Z,2.60
2023-03-05T05:03:01.452Z,0.40
2023-03-05T05:05:28.764Z,0.90
2023-03-05T05:07:57.040Z,1.60
2023-03-05T05:10:25.515Z,1.10
2023-03-05T05:12:52.229Z,0.90
2023-03-05T05:15:19.179Z,0.40
2023-03-05T05:17:46.133Z,0.70
2023-03-05T05:20:14.645Z,0.90
2023-03-05T05:22:41.679Z,1.20
2023-03-05T05:25:10.330Z,1.10
2023-03-05T05:27:39.044Z,1.30
2023-03-05T05:30:06.831Z,2.10
2023-03-05T05:32:33.751Z,1.30
2023-03-05T05:35:00.598Z,0.90
2023-03-05T05:37:27.617Z,0.60
2023-03-05T05:39:54.390Z,0.60
2023-03-05T05:42:23.054Z,1.20
2023-03-05T05:44:50.084Z,0.80
2023-03-05T05:47:19.755Z,1.10
2023-03-05T05:49:46.612Z,1.20
2023-03-05T05:52:13.879Z,1.10
2023-03-05T05:54:40.641Z,0.50
2023-03-05T05:57:07.831Z,0.40
2023-03-05T05:59:34.654Z,1.00
2023-03-05T06:02:01.390Z,1.20
2023-03-05T06:04:28.151Z,1.00
2023-03-05T06:06:54.854Z,0.60
2023-03-05T06:09:21.627Z,0.90
2023-03-05T06:11:48.397Z,1.50
2023-03-05T06:14:15.115Z,1.40
2023-03-05T06:16:42.219Z,0.80
2023-03-05T06:19:11.990Z,1.10
2023-03-05T06:21:39.259Z,2.10
2023-03-05T06:24:06.269Z,0.60
2023-03-05T06:26:33.338Z,1.70
2023-03-05T06:29:00.521Z,1.30
2023-03-05T06:31:28.820Z,1.10
2023-03-05T06:33:57.968Z,1.50
2023-03-05T06:36:26.017Z,1.40
2023-03-05T06:38:53.869Z,0.40
2023-03-05T06:41:27.089Z,0.00
2023-03-05T06:43:54.124Z,0.70
2023-03-05T06:46:26.467Z,1.10
2023-03-05T06:48:55.899Z,1.40
2023-03-05T06:51:25.883Z,1.50
2023-03-05T06:53:53.957Z,1.70
2023-03-05T06:56:21.646Z,2.10
2023-03-05T06:58:50.710Z,0.80
2023-03-05T07:01:18.191Z,1.60
2023-03-05T07:03:45.335Z,1.40
2023-03-05T07:06:15.970Z,1.50
2023-03-05T07:08:44.942Z,1.40
2023-03-05T07:11:14.439Z,1.30
2023-03-05T07:13:41.780Z,1.80
2023-03-05T07:16:10.886Z,1.70
2023-03-05T07:18:37.651Z,3.20
2023-03-05T07:21:06.474Z,2.00
2023-03-05T07:23:34.693Z,1.60
2023-03-05T07:26:02.616Z,1.60
2023-03-05T07:28:29.718Z,1.80
2023-03-05T07:30:58.493Z,1.00
2023-03-05T07:33:26.066Z,1.30
2023-03-05T07:35:52.860Z,1.80
2023-03-05T07:38:19.844Z,1.90
2023-03-05T07:40:46.581Z,2.10
2023-03-05T07:43:13.522Z,2.00
2023-03-05T07:45:41.602Z,2.00
2023-03-05T07:48:12.441Z,2.00
2023-03-05T07:50:39.231Z,2.10
2023-03-05T07:53:06.303Z,1.60
2023-03-05T07:55:33.128Z,2.10
2023-03-05T07:57:59.832Z,2.30
2023-03-05T08:00:26.647Z,2.10
2023-03-05T08:02:53.409Z,3.40
2023-03-05T08:05:20.165Z,2.10
2023-03-05T08:07:46.849Z,2.00
2023-03-05T08:10:13.561Z,2.20
2023-03-05T08:12:40.263Z,2.20
2023-03-05T08:15:07.917Z,2.10
2023-03-05T08:17:34.651Z,2.30
2023-03-05T08:20:05.472Z,2.10
2023-03-05T08:22:35.442Z,2.30
2023-03-05T08:25:03.022Z,2.50
2023-03-05T08:27:29.863Z,2.40
2023-03-05T08:29:56.671Z,2.40
2023-03-05T08:32:24.060Z,1.90
2023-03-05T08:34:50.771Z,2.10
2023-03-05T08:37:17.516Z,2.50
2023-03-05T08:39:44.223Z,2.20
2023-03-05T08:42:10.929Z,2.30
2023-03-05T08:44:37.646Z,2.50
2023-03-05T08:47:04.479Z,2.60
2023-03-05T08:49:31.160Z,2.00
2023-03-05T08:51:57.820Z,2.40
2023-03-05T08:54:24.497Z,2.60
2023-03-05T08:56:51.252Z,2.50
2023-03-05T08:59:17.992Z,2.40
2023-03-05T09:01:44.707Z,2.60
2023-03-05T09:04:11.384Z,2.70
2023-03-05T09:06:40.436Z,3.00
2023-03-05T09:09:08.516Z,3.00
2023-03-05T09:11:36.439Z,3.20
2023-03-05T09:14:04.335Z,3.10
2023-03-05T09:16:31.143Z,3.40
2023-03-05T09:18:58.935Z,3.50
2023-03-05T09:21:26.319Z,3.20
2023-03-05T09:23:59.498Z,5.00
2023-03-05T09:26:26.416Z,3.40
2023-03-05T09:28:53.268Z,3.80
2023-03-05T09:31:20.026Z,3.60
2023-03-05T09:33:49.085Z,3.70
2023-03-05T09:36:24.810Z,4.10
2023-03-05T09:38:51.859Z,4.10
2023-03-05T09:41:23.724Z,3.70
2023-03-05T09:43:53.499Z,3.80
2023-03-05T09:49:17.737Z,4.40
2023-03-05T09:51:48.887Z,4.10
2023-03-05T09:54:21.016Z,4.10
2023-03-05T09:56:51.124Z,4.20
2023-03-05T09:59:25.446Z,4.30
2023-03-05T10:01:53.368Z,4.10
2023-03-05T10:04:28.661Z,3.90
2023-03-05T10:07:08.943Z,4.10
2023-03-05T10:10:01.929Z,3.00
2023-03-05T10:12:44.124Z,3.90
2023-03-05T10:15:40.376Z,3.70
2023-03-05T10:18:28.783Z,4.00
2023-03-05T10:21:03.403Z,4.00
2023-03-05T10:23:48.161Z,3.90
2023-03-05T10:26:25.376Z,4.10
2023-03-05T10:29:03.634Z,4.10
2023-03-05T10:32:00.925Z,3.80
2023-03-05T10:34:55.625Z,4.00
2023-03-05T10:37:53.557Z,4.10
2023-03-05T10:40:42.624Z,4.30
2023-03-05T10:43:57.326Z,4.20
2023-03-05T10:46:32.760Z,4.10
2023-03-05T10:49:02.180Z,4.10
2023-03-05T10:51:41.220Z,4.20
2023-03-05T10:54:25.487Z,4.40
2023-03-05T10:57:03.694Z,4.40
2023-03-05T10:59:32.108Z,4.20
2023-03-05T11:02:08.747Z,4.10
2023-03-05T11:04:39.053Z,4.30
2023-03-05T11:07:15.781Z,4.30
2023-03-05T11:09:43.705Z,4.00
2023-03-05T11:12:13.406Z,4.40
2023-03-05T11:14:44.573Z,4.10
2023-03-05T11:17:34.070Z,4.00
2023-03-05T11:20:19.627Z,4.50
2023-03-05T11:23:04.696Z,4.60
2023-03-05T11:25:33.958Z,4.50
2023-03-05T11:28:02.122Z,5.20
2023-03-05T11:30:35.861Z,3.50
2023-03-05T11:33:14.355Z,4.30
2023-03-05T11:35:43.359Z,4.70
2023-03-05T11:38:25.168Z,4.50
2023-03-05T11:40:55.340Z,4.60
2023-03-05T11:43:24.764Z,4.30
2023-03-05T11:45:54.503Z,3.80
2023-03-05T11:48:34.612Z,4.30
2023-03-05T11:51:05.526Z,4.60
2023-03-05T11:53:36.732Z,3.70
2023-03-05T11:56:21.140Z,4.10
2023-03-05T11:59:12.407Z,4.50
2023-03-05T12:01:46.924Z,4.40
2023-03-05T12:04:14.589Z,4.70
2023-03-05T12:06:47.046Z,3.90
2023-03-05T12:09:37.966Z,4.10
2023-03-05T12:12:49.222Z,4.50
2023-03-05T12:15:18.482Z,4.40
2023-03-05T12:18:07.954Z,4.40
2023-03-05T12:20:48.932Z,4.50
2023-03-05T12:23:19.051Z,3.80
2023-03-05T12:25:51.294Z,4.00
2023-03-05T12:28:45.938Z,4.50
2023-03-05T12:31:31.689Z,4.30
2023-03-05T12:34:00.720Z,4.70
2023-03-05T12:36:36.706Z,4.00
2023-03-05T12:40:22.336Z,3.90
2023-03-05T12:57:37.117Z,4.90
2023-03-05T13:00:40.562Z,3.90
2023-03-05T13:03:13.920Z,4.40
2023-03-05T13:05:49.381Z,4.40
2023-03-05T13:08:22.402Z,4.50
2023-03-05T13:10:59.428Z,4.30
2023-03-05T13:13:29.164Z,4.60
2023-03-05T13:15:56.963Z,4.40
2023-03-05T13:18:26.533Z,4.20
2023-03-05T13:21:07.238Z,4.20
2023-03-05T13:23:35.030Z,4.30
2023-03-05T13:26:01.757Z,4.20
2023-03-05T13:28:29.603Z,4.30
2023-03-05T13:31:02.821Z,4.60
2023-03-05T13:33:35.764Z,4.70
2023-03-05T13:36:04.907Z,5.50
2023-03-05T13:38:39.758Z,4.50
2023-03-05T13:41:15.918Z,5.00
2023-03-05T13:43:47.114Z,4.90
2023-03-05T13:48:49.128Z,5.10
2023-03-05T13:51:16.770Z,4.80
2023-03-05T13:53:44.341Z,5.00
2023-03-05T13:56:18.934Z,4.60
2023-03-05T13:58:56.905Z,4.80
2023-03-05T14:01:36.851Z,4.60
2023-03-05T14:04:12.636Z,4.60
2023-03-05T14:06:46.510Z,4.40
2023-03-05T14:09:38.886Z,4.40
2023-03-05T14:12:38.911Z,4.30
2023-03-05T14:15:25.866Z,4.20
2023-03-05T14:18:05.248Z,4.30
2023-03-05T14:20:32.019Z,4.10
2023-03-05T14:23:01.214Z,4.10
2023-03-05T14:25:34.036Z,4.00
2023-03-05T14:28:07.491Z,4.20
2023-03-05T14:30:36.165Z,4.10
2023-03-05T14:33:03.613Z,4.30
2023-03-05T14:35:30.816Z,4.30
2023-03-05T14:37:59.811Z,3.50
2023-03-05T14:40:33.154Z,3.80
2023-03-05T14:43:06.959Z,3.70
2023-03-05T14:45:39.253Z,3.40
2023-03-05T14:48:07.694Z,3.70
2023-03-05T14:50:37.247Z,3.90
2023-03-05T14:53:09.790Z,3.80
2023-03-05T14:55:38.424Z,3.90
2023-03-05T14:58:13.236Z,3.60
2023-03-05T15:00:40.824Z,3.30
2023-03-05T15:03:11.519Z,3.60
2023-03-05T15:05:39.418Z,3.20
2023-03-05T15:08:08.376Z,3.50
2023-03-05T15:10:35.563Z,3.70
2023-03-05T15:13:02.516Z,3.50
2023-03-05T15:15:29.260Z,3.60
2023-03-05T15:17:56.110Z,3.30
2023-03-05T15:20:25.890Z,3.50
2023-03-05T15:22:53.563Z,3.30
2023-03-05T15:25:22.789Z,3.50
2023-03-05T15:27:53.543Z,2.90
2023-03-05T15:30:25.316Z,3.20
2023-03-05T15:32:55.309Z,3.30
2023-03-05T15:35:23.103Z,3.50
2023-03-05T15:37:49.922Z,3.80
2023-03-05T15:40:17.336Z,3.40
2023-03-05T15:42:44.127Z,4.00
2023-03-05T15:45:10.932Z,3.50
2023-03-05T15:47:37.706Z,3.20
2023-03-05T15:50:05.616Z,3.30
2023-03-05T15:52:32.437Z,3.70
2023-03-05T15:55:00.699Z,3.20
2023-03-05T15:57:28.379Z,3.50
2023-03-05T15:59:55.915Z,3.30
2023-03-05T16:02:24.634Z,3.30
2023-03-05T16:04:51.348Z,3.50
2023-03-05T16:07:18.573Z,3.30
2023-03-05T16:09:49.196Z,3.00
2023-03-05T16:12:31.259Z,3.20
2023-03-05T16:14:58.035Z,3.50
2023-03-05T16:17:25.052Z,3.20
2023-03-05T16:19:53.952Z,3.00
2023-03-05T16:22:20.656Z,3.40
2023-03-05T16:24:47.361Z,3.20
2023-03-05T16:27:14.039Z,3.30
2023-03-05T16:29:40.789Z,3.30
2023-03-05T16:32:07.557Z,3.20
2023-03-05T16:34:34.866Z,3.20
2023-03-05T16:37:04.343Z,3.30
2023-03-05T16:39:31.437Z,3.10
2023-03-05T16:41:59.624Z,3.90
2023-03-05T16:44:29.657Z,3.20
2023-03-05T16:46:56.472Z,3.20
2023-03-05T16:49:23.467Z,3.20
2023-03-05T16:51:50.179Z,3.10
2023-03-05T16:54:17.027Z,3.10
2023-03-05T16:56:43.705Z,3.00
2023-03-05T16:59:11.691Z,3.10
2023-03-05T17:01:38.493Z,3.30
2023-03-05T17:04:05.422Z,3.00
2023-03-05T17:06:33.544Z,3.00
2023-03-05T17:09:01.422Z,3.00
2023-03-05T17:11:28.365Z,2.90
2023-03-05T17:13:56.349Z,2.70
2023-03-05T17:16:23.245Z,2.70
2023-03-05T17:18:50.223Z,2.80
2023-03-05T17:21:17.021Z,2.70
2023-03-05T17:23:43.911Z,2.50
2023-03-05T17:26:16.117Z,2.70
2023-03-05T17:28:42.833Z,2.70
2023-03-05T17:31:09.610Z,2.50
2023-03-05T17:33:37.310Z,2.30
2023-03-05T17:36:05.408Z,2.40
2023-03-05T17:38:32.206Z,2.80
2023-03-05T17:40:58.940Z,2.30
2023-03-05T17:43:25.709Z,2.60
2023-03-05T17:48:34.509Z,2.80
2023-03-05T17:51:01.394Z,2.70
2023-03-05T17:53:29.483Z,2.70
2023-03-05T17:55:56.264Z,2.90
2023-03-05T17:58:23.485Z,2.60
2023-03-05T18:00:50.262Z,2.60
2023-03-05T18:03:17.482Z,4.30
2023-03-05T18:05:44.566Z,2.90
2023-03-05T18:08:11.240Z,2.50
2023-03-05T18:10:38.053Z,2.60
2023-03-05T18:13:05.350Z,2.60
2023-03-05T18:15:32.082Z,2.50
2023-03-05T18:17:58.814Z,2.10
2023-03-05T18:20:31.804Z,2.60
2023-03-05T18:23:00.093Z,2.90
2023-03-05T18:25:31.419Z,2.90
2023-03-05T18:28:06.641Z,2.60
2023-03-05T18:30:33.870Z,2.50
2023-03-05T18:33:00.900Z,2.50
2023-03-05T18:35:29.223Z,2.50
2023-03-05T18:37:57.360Z,2.20
2023-03-05T18:40:26.277Z,2.10
2023-03-05T18:42:53.019Z,2.60
2023-03-05T18:45:22.392Z,2.50
2023-03-05T18:47:54.313Z,2.30
2023-03-05T18:50:23.345Z,2.70
2023-03-05T18:52:50.035Z,2.80
2023-03-05T18:55:19.801Z,2.00
2023-03-05T18:57:46.534Z,2.60
2023-03-05T19:00:15.979Z,2.00
2023-03-05T19:02:42.776Z,2.70
2023-03-05T19:05:10.198Z,2.60
2023-03-05T19:07:38.010Z,2.70
2023-03-05T19:10:10.021Z,2.30
2023-03-05T19:12:45.404Z,2.70
2023-03-05T19:15:13.526Z,2.20
2023-03-05T19:17:40.605Z,2.40
2023-03-05T19:20:10.954Z,2.30
2023-03-05T19:22:37.938Z,2.60
2023-03-05T19:25:05.358Z,4.10
2023-03-05T19:27:32.614Z,2.60
2023-03-05T19:30:00.385Z,2.30
2023-03-05T19:32:27.830Z,2.00
2023-03-05T19:34:56.018Z,2.30
2023-03-05T19:37:22.772Z,2.30
2023-03-05T19:39:49.623Z,1.90
2023-03-05T19:42:16.327Z,2.00
2023-03-05T19:44:43.035Z,2.30
2023-03-05T19:47:09.953Z,2.40
2023-03-05T19:49:36.654Z,2.30
2023-03-05T19:52:04.230Z,2.10
2023-03-05T19:54:31.027Z,2.20
2023-03-05T19:56:58.936Z,2.40
2023-03-05T19:59:26.096Z,2.30
2023-03-05T20:01:53.526Z,2.30
2023-03-05T20:04:22.267Z,2.00
2023-03-05T20:06:49.039Z,2.10
2023-03-05T20:09:16.452Z,2.00
2023-03-05T20:11:44.092Z,1.90
2023-03-05T20:14:12.978Z,2.00
2023-03-05T20:16:40.555Z,1.90
2023-03-05T20:19:08.447Z,2.00
2023-03-05T20:21:38.767Z,2.00
2023-03-05T20:24:09.783Z,2.10
2023-03-05T20:26:38.514Z,2.20
2023-03-05T20:29:06.079Z,1.80
2023-03-05T20:31:36.969Z,2.20
2023-03-05T20:34:08.668Z,1.70
2023-03-05T20:36:35.559Z,1.80
2023-03-05T20:39:04.483Z,1.70
2023-03-05T20:41:33.124Z,1.70
2023-03-05T20:44:00.069Z,1.70
2023-03-05T20:46:29.179Z,1.90
2023-03-05T20:48:59.032Z,2.00
2023-03-05T20:51:31.964Z,1.80
2023-03-05T20:54:03.204Z,2.00
2023-03-05T20:56:32.370Z,1.70
2023-03-05T20:59:01.121Z,1.90
2023-03-05T21:01:28.350Z,1.70
2023-03-05T21:03:58.360Z,1.80
2023-03-05T21:06:27.383Z,1.80
2023-03-05T21:08:56.206Z,1.70
2023-03-05T21:11:23.050Z,1.60
2023-03-05T21:13:49.795Z,1.50
2023-03-05T21:16:25.874Z,1.40
2023-03-05T21:18:53.573Z,1.60
2023-03-05T21:21:20.259Z,1.50
2023-03-05T21:23:47.327Z,1.70
2023-03-05T21:26:14.461Z,1.60
2023-03-05T21:28:41.262Z,1.60
2023-03-05T21:31:16.568Z,1.70
2023-03-05T21:33:43.536Z,1.90
2023-03-05T21:36:10.572Z,1.80
2023-03-05T21:38:37.351Z,2.10
2023-03-05T21:41:05.339Z,1.80
2023-03-05T21:43:32.581Z,1.70
2023-03-05T21:46:03.173Z,1.90
2023-03-05T21:48:30.920Z,1.90
2023-03-05T21:50:58.414Z,1.90
2023-03-05T21:53:25.996Z,2.00
2023-03-05T21:56:07.939Z,1.50
2023-03-05T21:58:35.407Z,1.70
2023-03-05T22:01:03.334Z,1.80
2023-03-05T22:03:30.389Z,1.60
2023-03-05T22:05:57.558Z,1.60
2023-03-05T22:08:24.564Z,3.40
2023-03-05T22:10:52.075Z,1.80
2023-03-05T22:13:20.119Z,1.70
2023-03-05T22:15:54.294Z,1.60
2023-03-05T22:18:24.692Z,1.70
2023-03-05T22:20:52.504Z,1.60
2023-03-05T22:26:17.115Z,1.60
2023-03-05T22:28:53.399Z,2.10
2023-03-05T22:31:26.315Z,0.90
2023-03-05T22:33:54.395Z,3.70
2023-03-05T22:36:21.352Z,2.80
2023-03-05T22:38:51.467Z,2.00
2023-03-05T22:41:21.824Z,2.30
2023-03-05T22:43:57.116Z,1.40
2023-03-05T22:46:26.781Z,0.80
2023-03-05T22:48:54.312Z,0.70
2023-03-05T22:51:21.372Z,0.60
2023-03-05T22:53:48.352Z,3.80
2023-03-05T22:56:17.679Z,0.40
2023-03-05T22:58:44.937Z,2.20
2023-03-05T23:01:17.592Z,0.50
2023-03-05T23:03:44.521Z,1.70
2023-03-05T23:06:29.563Z,0.60
2023-03-05T23:08:56.559Z,0.40
2023-03-05T23:11:23.494Z,0.40
2023-03-05T23:13:53.472Z,0.90
2023-03-05T23:16:20.431Z,3.10
2023-03-05T23:18:47.266Z,3.00
2023-03-05T23:21:14.090Z,3.10
2023-03-05T23:23:41.229Z,1.40
2023-03-05T23:26:08.209Z,0.30
2023-03-05T23:28:35.248Z,1.00
2023-03-05T23:31:04.382Z,2.40
2023-03-05T23:33:31.522Z,2.50
2023-03-05T23:35:59.917Z,1.00
2023-03-05T23:38:30.862Z,3.20
2023-03-05T23:41:01.383Z,0.70
2023-03-05T23:43:28.671Z,0.90
2023-03-05T23:45:58.053Z,2.40
2023-03-05T23:48:26.665Z,2.70
2023-03-05T23:50:54.135Z,2.70
2023-03-05T23:53:23.207Z,2.30
2023-03-05T23:55:50.950Z,1.10
2023-03-05T23:58:21.622Z,0.60
